createdAt,value
2022-12-05T00:00:21.401Z,2.32
2022-12-05T00:01:21.356Z,2.42
2022-12-05T00:02:21.464Z,2.46
2022-12-05T00:03:21.350Z,2.44
2022-12-05T00:04:21.399Z,2.43
2022-12-05T00:05:21.314Z,2.43
2022-12-05T00:06:21.324Z,2.50
2022-12-05T00:07:21.329Z,2.49
2022-12-05T00:08:21.367Z,2.43
2022-12-05T00:09:21.259Z,2.46
2022-12-05T00:10:21.257Z,2.50
2022-12-05T00:11:21.242Z,2.50
2022-12-05T00:12:21.317Z,2.47
2022-12-05T00:13:21.219Z,2.47
2022-12-05T00:14:21.207Z,2.51
2022-12-05T00:15:21.197Z,2.50
2022-12-05T00:16:21.261Z,2.50
2022-12-05T00:17:21.176Z,2.50
2022-12-05T00:18:21.290Z,2.60
2022-12-05T00:19:21.146Z,2.50
2022-12-05T00:20:21.145Z,2.57
2022-12-05T00:21:21.128Z,2.57
2022-12-05T00:22:21.226Z,2.53
2022-12-05T00:23:21.105Z,2.46
2022-12-05T00:24:21.118Z,2.49
2022-12-05T00:25:21.085Z,2.60
2022-12-05T00:26:21.076Z,2.47
2022-12-05T00:27:21.060Z,2.56
2022-12-05T00:28:21.051Z,2.44
2022-12-05T00:29:21.046Z,2.50
2022-12-05T00:30:21.040Z,2.53
2022-12-05T00:31:21.056Z,2.49
2022-12-05T00:32:21.100Z,2.49
2022-12-05T00:33:21.016Z,2.47
2022-12-05T00:34:21.015Z,2.53
2022-12-05T00:35:20.991Z,2.53
2022-12-05T00:36:21.002Z,2.60
2022-12-05T00:37:20.945Z,2.47
2022-12-05T00:38:21.054Z,2.62
2022-12-05T00:39:20.930Z,2.53
2022-12-05T00:40:20.917Z,2.61
2022-12-05T00:41:20.943Z,2.54
2022-12-05T00:42:20.944Z,2.62
2022-12-05T00:43:20.886Z,2.56
2022-12-05T00:44:20.874Z,2.60
2022-12-05T00:45:20.854Z,2.54
2022-12-05T00:46:20.928Z,2.65
2022-12-05T00:47:20.834Z,2.62
2022-12-05T00:48:20.868Z,2.53
2022-12-05T00:49:20.819Z,2.65
2022-12-05T00:50:20.825Z,2.65
2022-12-05T00:51:20.796Z,2.69
2022-12-05T00:52:20.776Z,2.68
2022-12-05T00:53:20.771Z,2.64
2022-12-05T00:54:20.794Z,2.56
2022-12-05T00:55:20.750Z,2.71
2022-12-05T00:56:20.732Z,2.60
2022-12-05T00:57:20.729Z,2.62
2022-12-05T00:58:20.709Z,2.67
2022-12-05T00:59:20.771Z,2.68
2022-12-05T01:00:20.727Z,2.67
2022-12-05T01:01:20.753Z,2.72
2022-12-05T01:02:20.675Z,2.68
2022-12-05T01:03:20.733Z,2.64
2022-12-05T01:04:20.648Z,2.62
2022-12-05T01:05:20.649Z,2.71
2022-12-05T01:06:20.673Z,2.69
2022-12-05T01:07:20.621Z,2.79
2022-12-05T01:08:20.661Z,2.67
2022-12-05T01:09:20.595Z,2.80
2022-12-05T01:10:20.696Z,2.74
2022-12-05T01:11:20.570Z,2.79
2022-12-05T01:12:20.702Z,2.87
2022-12-05T01:13:20.546Z,2.80
2022-12-05T01:14:20.569Z,2.93
2022-12-05T01:15:20.531Z,2.92
2022-12-05T01:16:20.586Z,2.89
2022-12-05T01:17:20.508Z,2.85
2022-12-05T01:18:20.589Z,2.89
2022-12-05T01:19:20.486Z,2.85
2022-12-05T01:20:20.471Z,2.86
2022-12-05T01:21:20.465Z,2.95
2022-12-05T01:22:20.484Z,2.95
2022-12-05T01:23:20.445Z,2.95
2022-12-05T01:24:20.464Z,3.01
2022-12-05T01:25:20.413Z,3.04
2022-12-05T01:26:20.405Z,3.00
2022-12-05T01:27:20.393Z,3.00
2022-12-05T01:28:20.386Z,3.00
2022-12-05T01:29:20.507Z,3.13
2022-12-05T01:30:20.391Z,3.03
2022-12-05T01:31:20.378Z,3.01
2022-12-05T01:32:20.397Z,3.08
2022-12-05T01:33:20.476Z,3.07
2022-12-05T01:34:20.322Z,3.08
2022-12-05T01:35:20.303Z,3.01
2022-12-05T01:36:20.324Z,3.07
2022-12-05T01:37:20.279Z,3.08
2022-12-05T01:38:20.312Z,3.03
2022-12-05T01:39:20.287Z,3.10
2022-12-05T01:40:20.248Z,3.10
2022-12-05T01:41:20.240Z,3.11
2022-12-05T01:42:24.708Z,3.18
2022-12-05T01:43:21.218Z,3.18
2022-12-05T01:44:20.206Z,3.13
2022-12-05T01:45:20.186Z,3.14
2022-12-05T01:46:20.290Z,3.28
2022-12-05T01:47:20.170Z,3.11
2022-12-05T01:48:20.190Z,3.23
2022-12-05T01:49:20.149Z,3.28
2022-12-05T01:50:20.140Z,3.29
2022-12-05T01:51:20.123Z,3.28
2022-12-05T01:52:20.153Z,3.40
2022-12-05T01:53:20.107Z,3.34
2022-12-05T01:54:20.207Z,3.29
2022-12-05T01:55:20.085Z,3.29
2022-12-05T01:56:20.093Z,3.32
2022-12-05T01:57:20.060Z,3.34
2022-12-05T01:58:20.048Z,3.48
2022-12-05T01:59:20.044Z,3.47
2022-12-05T02:00:20.036Z,3.37
2022-12-05T02:01:20.088Z,3.41
2022-12-05T02:02:20.118Z,3.40
2022-12-05T02:03:20.000Z,3.40
2022-12-05T02:04:20.046Z,3.42
2022-12-05T02:05:19.985Z,3.44
2022-12-05T02:06:20.011Z,3.40
2022-12-05T02:07:20.000Z,3.44
2022-12-05T02:08:20.162Z,3.47
2022-12-05T02:09:19.932Z,3.45
2022-12-05T02:10:19.944Z,3.44
2022-12-05T02:11:19.914Z,3.53
2022-12-05T02:12:19.968Z,3.44
2022-12-05T02:13:19.885Z,3.51
2022-12-05T02:14:19.866Z,3.47
2022-12-05T02:15:19.877Z,3.50
2022-12-05T02:16:19.918Z,3.56
2022-12-05T02:17:19.842Z,3.55
2022-12-05T02:18:19.880Z,3.56
2022-12-05T02:19:19.816Z,3.60
2022-12-05T02:20:19.871Z,3.56
2022-12-05T02:21:19.790Z,3.69
2022-12-05T02:22:19.807Z,3.69
2022-12-05T02:23:19.801Z,3.68
2022-12-05T02:24:19.795Z,3.69
2022-12-05T02:25:19.754Z,3.76
2022-12-05T02:26:19.762Z,3.80
2022-12-05T02:27:19.728Z,3.69
2022-12-05T02:28:19.715Z,3.65
2022-12-05T02:29:19.701Z,3.76
2022-12-05T02:30:19.756Z,3.70
2022-12-05T02:31:19.812Z,3.68
2022-12-05T02:32:19.679Z,3.73
2022-12-05T02:33:19.664Z,3.74
2022-12-05T02:34:19.648Z,3.68
2022-12-05T02:35:19.639Z,3.69
2022-12-05T02:36:19.671Z,3.70
2022-12-05T02:37:19.618Z,3.73
2022-12-05T02:38:19.606Z,3.76
2022-12-05T02:39:19.596Z,3.70
2022-12-05T02:40:19.579Z,3.74
2022-12-05T02:41:19.595Z,3.73
2022-12-05T02:42:19.674Z,3.68
2022-12-05T02:43:19.555Z,3.68
2022-12-05T02:44:19.671Z,3.69
2022-12-05T02:45:19.529Z,3.70
2022-12-05T02:46:19.586Z,3.70
2022-12-05T02:47:19.534Z,3.73
2022-12-05T02:48:19.527Z,3.70
2022-12-05T02:49:19.505Z,3.68
2022-12-05T02:50:19.473Z,3.73
2022-12-05T02:51:19.499Z,3.73
2022-12-05T02:52:19.453Z,3.65
2022-12-05T02:53:19.449Z,3.65
2022-12-05T02:54:19.465Z,3.60
2022-12-05T02:55:19.416Z,3.66
2022-12-05T02:56:19.408Z,3.68
2022-12-05T02:57:19.425Z,3.73
2022-12-05T02:58:19.418Z,3.70
2022-12-05T02:59:23.311Z,3.76
2022-12-05T03:00:19.378Z,3.70
2022-12-05T03:01:19.377Z,3.63
2022-12-05T03:02:19.337Z,3.69
2022-12-05T03:03:19.357Z,3.80
2022-12-05T03:04:19.376Z,3.68
2022-12-05T03:05:19.306Z,3.70
2022-12-05T03:06:19.335Z,3.69
2022-12-05T03:07:19.325Z,3.76
2022-12-05T03:08:19.363Z,3.73
2022-12-05T03:09:19.263Z,3.70
2022-12-05T03:10:19.306Z,3.86
2022-12-05T03:11:19.244Z,3.83
2022-12-05T03:12:19.271Z,3.77
2022-12-05T03:13:19.222Z,3.83
2022-12-05T03:14:19.234Z,3.81
2022-12-05T03:15:19.208Z,3.87
2022-12-05T03:16:19.289Z,3.81
2022-12-05T03:17:19.187Z,3.87
2022-12-05T03:18:19.190Z,3.84
2022-12-05T03:19:19.157Z,3.91
2022-12-05T03:20:19.149Z,3.84
2022-12-05T03:21:19.132Z,3.83
2022-12-05T03:22:19.118Z,3.80
2022-12-05T03:23:19.108Z,3.91
2022-12-05T03:24:19.152Z,3.96
2022-12-05T03:25:19.095Z,3.86
2022-12-05T03:26:19.111Z,3.94
2022-12-05T03:27:19.091Z,3.98
2022-12-05T03:28:19.066Z,3.92
2022-12-05T03:29:19.046Z,4.02
2022-12-05T03:30:19.094Z,4.04
2022-12-05T03:31:19.100Z,4.02
2022-12-05T03:32:19.012Z,3.99
2022-12-05T03:33:19.002Z,4.01
2022-12-05T03:34:18.988Z,4.01
2022-12-05T03:35:19.116Z,4.02
2022-12-05T03:36:19.016Z,3.94
2022-12-05T03:37:18.955Z,4.06
2022-12-05T03:38:18.950Z,4.05
2022-12-05T03:39:18.952Z,4.05
2022-12-05T03:40:18.920Z,4.02
2022-12-05T03:41:18.916Z,4.02
2022-12-05T03:42:18.926Z,4.01
2022-12-05T03:43:18.890Z,4.02
2022-12-05T03:44:18.894Z,4.08
2022-12-05T03:45:18.867Z,4.06
2022-12-05T03:46:19.011Z,4.12
2022-12-05T03:47:18.842Z,4.02
2022-12-05T03:48:18.884Z,4.10
2022-12-05T03:49:18.839Z,4.06
2022-12-05T03:50:18.824Z,4.05
2022-12-05T03:51:18.806Z,4.05
2022-12-05T03:52:18.791Z,4.10
2022-12-05T03:53:20.350Z,4.13
2022-12-05T03:54:18.884Z,4.05
2022-12-05T03:55:18.789Z,4.10
2022-12-05T03:56:18.744Z,4.17
2022-12-05T03:57:18.732Z,4.13
2022-12-05T03:58:18.727Z,4.12
2022-12-05T03:59:18.713Z,4.16
2022-12-05T04:00:18.756Z,4.16
2022-12-05T04:01:18.848Z,4.17
2022-12-05T04:02:18.712Z,4.19
2022-12-05T04:03:18.711Z,4.19
2022-12-05T04:04:18.651Z,4.20
2022-12-05T04:05:18.649Z,4.20
2022-12-05T04:06:18.658Z,4.17
2022-12-05T04:07:18.622Z,4.20
2022-12-05T04:08:18.814Z,4.17
2022-12-05T04:09:18.601Z,4.17
2022-12-05T04:10:18.592Z,4.17
2022-12-05T04:11:18.576Z,4.16
2022-12-05T04:12:18.634Z,4.22
2022-12-05T04:13:18.554Z,4.20
2022-12-05T04:14:18.541Z,4.22
2022-12-05T04:15:18.554Z,4.24
2022-12-05T04:16:18.637Z,4.19
2022-12-05T04:17:18.517Z,4.23
2022-12-05T04:18:18.579Z,4.19
2022-12-05T04:19:18.511Z,4.20
2022-12-05T04:20:18.491Z,4.22
2022-12-05T04:21:18.501Z,4.20
2022-12-05T04:22:18.470Z,4.22
2022-12-05T04:23:18.445Z,4.14
2022-12-05T04:24:18.483Z,4.30
2022-12-05T04:25:18.431Z,4.28
2022-12-05T04:26:18.412Z,4.31
2022-12-05T04:27:18.418Z,4.22
2022-12-05T04:28:21.791Z,4.28
2022-12-05T04:29:18.380Z,4.34
2022-12-05T04:30:18.425Z,4.35
2022-12-05T04:31:18.432Z,4.34
2022-12-05T04:32:18.345Z,4.32
2022-12-05T04:33:18.338Z,4.31
2022-12-05T04:34:18.356Z,4.31
2022-12-05T04:35:18.312Z,4.34
2022-12-05T04:36:18.327Z,4.32
2022-12-05T04:37:18.289Z,4.40
2022-12-05T04:38:18.285Z,4.35
2022-12-05T04:39:18.576Z,4.34
2022-12-05T04:40:18.255Z,4.38
2022-12-05T04:41:18.256Z,4.34
2022-12-05T04:42:18.267Z,4.42
2022-12-05T04:43:18.222Z,4.34
2022-12-05T04:44:18.216Z,4.41
2022-12-05T04:45:18.222Z,4.35
2022-12-05T04:46:18.278Z,4.38
2022-12-05T04:47:18.193Z,4.41
2022-12-05T04:48:18.201Z,4.28
2022-12-05T04:49:18.155Z,4.35
2022-12-05T04:50:18.175Z,4.34
2022-12-05T04:51:18.136Z,4.35
2022-12-05T04:52:18.124Z,4.41
2022-12-05T04:53:18.117Z,4.44
2022-12-05T04:54:18.125Z,4.50
2022-12-05T04:55:18.088Z,4.44
2022-12-05T04:56:18.076Z,4.44
2022-12-05T04:57:18.092Z,4.48
2022-12-05T04:58:18.054Z,4.48
2022-12-05T04:59:18.065Z,4.48
2022-12-05T05:00:18.062Z,4.50
2022-12-05T05:01:18.148Z,4.50
2022-12-05T05:02:18.014Z,4.58
2022-12-05T05:03:18.194Z,4.58
2022-12-05T05:04:17.987Z,4.56
2022-12-05T05:05:18.003Z,4.58
2022-12-05T05:06:18.066Z,4.60
2022-12-05T05:07:17.957Z,4.59
2022-12-05T05:08:18.048Z,4.55
2022-12-05T05:09:17.926Z,4.58
2022-12-05T05:10:17.922Z,4.63
2022-12-05T05:11:17.909Z,4.60
2022-12-05T05:12:19.390Z,4.56
2022-12-05T05:13:17.885Z,4.60
2022-12-05T05:14:17.877Z,4.62
2022-12-05T05:15:17.865Z,4.60
2022-12-05T05:16:17.949Z,4.56
2022-12-05T05:17:17.847Z,4.62
2022-12-05T05:18:17.840Z,4.59
2022-12-05T05:19:17.818Z,4.58
2022-12-05T05:20:19.967Z,4.62
2022-12-05T05:21:17.795Z,4.58
2022-12-05T05:22:17.809Z,4.60
2022-12-05T05:23:17.773Z,4.63
2022-12-05T05:24:17.804Z,4.56
2022-12-05T05:25:17.754Z,4.62
2022-12-05T05:26:17.746Z,4.60
2022-12-05T05:27:17.773Z,4.63
2022-12-05T05:28:17.720Z,4.67
2022-12-05T05:29:17.712Z,4.58
2022-12-05T05:30:17.798Z,4.56
2022-12-05T05:31:17.735Z,4.56
2022-12-05T05:32:17.675Z,4.49
2022-12-05T05:33:17.665Z,4.49
2022-12-05T05:34:17.650Z,4.56
2022-12-05T05:35:17.668Z,4.48
2022-12-05T05:36:17.648Z,4.50
2022-12-05T05:37:17.620Z,4.59
2022-12-05T05:38:17.649Z,4.53
2022-12-05T05:39:17.588Z,4.56
2022-12-05T05:40:17.590Z,4.58
2022-12-05T05:41:17.567Z,4.59
2022-12-05T05:42:17.625Z,4.59
2022-12-05T05:43:17.548Z,4.55
2022-12-05T05:44:17.535Z,4.56
2022-12-05T05:45:17.530Z,4.63
2022-12-05T05:46:17.545Z,4.58
2022-12-05T05:47:17.508Z,4.62
2022-12-05T05:48:17.532Z,4.56
2022-12-05T05:49:17.486Z,4.67
2022-12-05T05:50:21.425Z,4.70
2022-12-05T05:51:17.463Z,4.63
2022-12-05T05:52:17.451Z,4.63
2022-12-05T05:53:17.458Z,4.59
2022-12-05T05:54:17.494Z,4.60
2022-12-05T05:55:17.445Z,4.58
2022-12-05T05:56:21.451Z,4.53
2022-12-05T05:57:20.382Z,4.59
2022-12-05T05:58:17.384Z,4.63
2022-12-05T05:59:17.374Z,4.62
2022-12-05T06:00:17.390Z,4.59
2022-12-05T06:01:17.352Z,4.56
2022-12-05T06:02:17.344Z,4.58
2022-12-05T06:03:17.505Z,4.62
2022-12-05T06:04:17.370Z,4.59
2022-12-05T06:05:17.341Z,4.58
2022-12-05T06:06:17.323Z,4.56
2022-12-05T06:07:17.279Z,4.59
2022-12-05T06:08:17.386Z,4.58
2022-12-05T06:09:17.259Z,4.58
2022-12-05T06:10:17.273Z,4.62
2022-12-05T06:11:24.568Z,4.56
2022-12-05T06:12:18.319Z,4.68
2022-12-05T06:13:17.211Z,4.60
2022-12-05T06:14:17.200Z,4.59
2022-12-05T06:15:17.213Z,4.70
2022-12-05T06:16:17.238Z,4.58
2022-12-05T06:17:17.190Z,4.56
2022-12-05T06:18:17.178Z,4.68
2022-12-05T06:19:17.140Z,4.67
2022-12-05T06:20:17.138Z,4.68
2022-12-05T06:21:17.136Z,4.68
2022-12-05T06:22:17.191Z,4.58
2022-12-05T06:23:17.138Z,4.52
2022-12-05T06:24:17.100Z,4.58
2022-12-05T06:25:17.083Z,4.55
2022-12-05T06:26:17.093Z,4.67
2022-12-05T06:27:17.058Z,4.63
2022-12-05T06:28:17.046Z,4.59
2022-12-05T06:29:20.538Z,4.60
2022-12-05T06:30:18.059Z,4.52
2022-12-05T06:31:17.080Z,4.66
2022-12-05T06:32:17.076Z,4.60
2022-12-05T06:33:17.006Z,4.60
2022-12-05T06:34:16.979Z,4.62
2022-12-05T06:35:16.973Z,4.62
2022-12-05T06:36:16.987Z,4.74
2022-12-05T06:37:17.141Z,4.71
2022-12-05T06:38:16.930Z,4.66
2022-12-05T06:39:16.932Z,4.63
2022-12-05T06:40:16.909Z,4.73
2022-12-05T06:41:17.199Z,4.73
2022-12-05T06:42:16.941Z,4.75
2022-12-05T06:43:16.915Z,4.75
2022-12-05T06:44:16.868Z,4.80
2022-12-05T06:45:16.888Z,4.80
2022-12-05T06:46:16.879Z,4.78
2022-12-05T06:47:16.832Z,4.80
2022-12-05T06:48:16.953Z,4.80
2022-12-05T06:49:16.812Z,4.82
2022-12-05T06:50:16.799Z,4.80
2022-12-05T06:51:17.413Z,4.90
2022-12-05T06:52:16.805Z,4.89
2022-12-05T06:53:16.769Z,4.93
2022-12-05T06:54:16.800Z,4.92
2022-12-05T06:55:16.745Z,4.93
2022-12-05T06:56:16.777Z,4.97
2022-12-05T06:57:16.719Z,4.96
2022-12-05T06:58:16.763Z,5.04
2022-12-05T06:59:16.713Z,4.93
2022-12-05T07:00:16.744Z,4.97
2022-12-05T07:01:16.775Z,4.99
2022-12-05T07:02:16.789Z,5.05
2022-12-05T07:03:16.685Z,4.99
2022-12-05T07:04:16.690Z,5.10
2022-12-05T07:05:16.634Z,5.10
2022-12-05T07:06:16.664Z,5.10
2022-12-05T07:07:16.641Z,5.12
2022-12-05T07:08:16.700Z,5.17
2022-12-05T07:09:16.593Z,5.18
2022-12-05T07:10:16.582Z,5.14
2022-12-05T07:11:16.559Z,5.15
2022-12-05T07:12:16.624Z,5.15
2022-12-05T07:13:16.549Z,5.18
2022-12-05T07:14:38.957Z,5.18
2022-12-05T07:15:17.524Z,5.28
2022-12-05T07:16:16.625Z,5.26
2022-12-05T07:17:16.608Z,5.28
2022-12-05T07:18:16.494Z,5.35
2022-12-05T07:19:16.473Z,5.41
2022-12-05T07:20:16.465Z,5.39
2022-12-05T07:21:16.498Z,5.39
2022-12-05T07:22:16.598Z,5.32
2022-12-05T07:23:16.442Z,5.38
2022-12-05T07:24:16.452Z,5.36
2022-12-05T07:25:16.402Z,5.48
2022-12-05T07:26:16.405Z,5.47
2022-12-05T07:27:20.591Z,5.47
2022-12-05T07:28:17.380Z,5.44
2022-12-05T07:29:16.380Z,5.48
2022-12-05T07:30:16.409Z,5.51
2022-12-05T07:31:16.465Z,5.53
2022-12-05T07:32:16.408Z,5.54
2022-12-05T07:33:16.322Z,5.50
2022-12-05T07:34:16.309Z,5.43
2022-12-05T07:35:16.317Z,5.51
2022-12-05T07:36:16.319Z,5.44
2022-12-05T07:37:16.279Z,5.50
2022-12-05T07:38:16.271Z,5.51
2022-12-05T07:39:16.270Z,5.51
2022-12-05T07:40:16.250Z,5.57
2022-12-05T07:41:16.234Z,5.61
2022-12-05T07:42:16.296Z,5.64
2022-12-05T07:43:16.207Z,5.56
2022-12-05T07:44:16.190Z,5.66
2022-12-05T07:45:16.185Z,5.65
2022-12-05T07:46:16.413Z,5.65
2022-12-05T07:47:16.990Z,5.68
2022-12-05T07:48:18.771Z,5.65
2022-12-05T07:49:16.138Z,5.71
2022-12-05T07:50:16.129Z,5.69
2022-12-05T07:51:16.110Z,5.64
2022-12-05T07:52:16.126Z,5.66
2022-12-05T07:53:16.088Z,5.69
2022-12-05T07:54:16.124Z,5.66
2022-12-05T07:55:16.133Z,5.73
2022-12-05T07:56:16.099Z,5.73
2022-12-05T07:57:16.058Z,5.62
2022-12-05T07:58:16.035Z,5.66
2022-12-05T07:59:16.028Z,5.76
2022-12-05T08:00:16.044Z,5.73
2022-12-05T08:01:16.084Z,5.76
2022-12-05T08:02:16.147Z,5.79
2022-12-05T08:03:15.990Z,5.82
2022-12-05T08:04:16.173Z,5.79
2022-12-05T08:05:15.950Z,5.84
2022-12-05T08:06:15.973Z,5.87
2022-12-05T08:07:15.956Z,5.91
2022-12-05T08:08:16.010Z,5.93
2022-12-05T08:09:15.930Z,5.87
2022-12-05T08:10:15.899Z,5.87
2022-12-05T08:11:15.932Z,5.83
2022-12-05T08:12:15.902Z,5.83
2022-12-05T08:13:15.886Z,5.83
2022-12-05T08:14:15.901Z,5.94
2022-12-05T08:15:15.845Z,5.97
2022-12-05T08:16:15.898Z,5.94
2022-12-05T08:17:15.880Z,5.94
2022-12-05T08:18:15.894Z,5.94
2022-12-05T08:19:16.454Z,5.97
2022-12-05T08:20:15.786Z,5.98
2022-12-05T08:21:15.803Z,6.02
2022-12-05T08:22:15.764Z,6.05
2022-12-05T08:23:15.777Z,6.09
2022-12-05T08:24:15.775Z,6.08
2022-12-05T08:25:15.753Z,6.08
2022-12-05T08:26:16.434Z,6.11
2022-12-05T08:27:15.714Z,6.11
2022-12-05T08:28:15.713Z,6.16
2022-12-05T08:29:15.705Z,6.19
2022-12-05T08:30:15.863Z,6.17
2022-12-05T08:31:15.768Z,6.16
2022-12-05T08:32:15.760Z,6.19
2022-12-05T08:33:15.647Z,6.19
2022-12-05T08:34:15.711Z,6.24
2022-12-05T08:35:15.636Z,6.17
2022-12-05T08:36:15.753Z,6.30
2022-12-05T08:37:15.610Z,6.20
2022-12-05T08:38:15.630Z,6.26
2022-12-05T08:39:15.571Z,6.26
2022-12-05T08:40:15.590Z,6.24
2022-12-05T08:41:15.560Z,6.28
2022-12-05T08:42:15.668Z,6.28
2022-12-05T08:43:15.529Z,6.19
2022-12-05T08:44:15.527Z,6.28
2022-12-05T08:45:15.519Z,6.26
2022-12-05T08:46:15.586Z,6.26
2022-12-05T08:47:16.437Z,6.28
2022-12-05T08:48:15.516Z,6.28
2022-12-05T08:49:15.463Z,6.28
2022-12-05T08:50:15.480Z,6.36
2022-12-05T08:51:15.435Z,6.31
2022-12-05T08:52:15.438Z,6.35
2022-12-05T08:53:15.416Z,6.36
2022-12-05T08:54:15.474Z,6.35
2022-12-05T08:55:15.396Z,6.38
2022-12-05T08:56:15.390Z,6.33
2022-12-05T08:57:15.435Z,6.36
2022-12-05T08:58:15.367Z,6.38
2022-12-05T08:59:15.352Z,6.33
2022-12-05T09:00:15.352Z,6.39
2022-12-05T09:01:15.469Z,6.31
2022-12-05T09:02:15.378Z,6.38
2022-12-05T09:03:15.310Z,6.42
2022-12-05T09:04:15.315Z,6.41
2022-12-05T09:05:27.865Z,6.44
2022-12-05T09:06:16.335Z,6.44
2022-12-05T09:07:15.281Z,6.44
2022-12-05T09:08:15.313Z,6.41
2022-12-05T09:09:15.251Z,6.49
2022-12-05T09:10:15.227Z,6.45
2022-12-05T09:11:15.217Z,6.56
2022-12-05T09:12:15.241Z,6.59
2022-12-05T09:13:15.219Z,6.51
2022-12-05T09:14:15.183Z,6.56
2022-12-05T09:15:15.199Z,6.54
2022-12-05T09:16:15.197Z,6.52
2022-12-05T09:17:15.149Z,6.59
2022-12-05T09:18:15.220Z,6.56
2022-12-05T09:19:15.126Z,6.67
2022-12-05T09:20:15.110Z,6.64
2022-12-05T09:21:15.127Z,6.78
2022-12-05T09:22:15.112Z,6.74
2022-12-05T09:23:16.273Z,6.74
2022-12-05T09:24:15.135Z,6.69
2022-12-05T09:25:15.057Z,6.75
2022-12-05T09:26:15.075Z,6.88
2022-12-05T09:27:15.032Z,6.82
2022-12-05T09:28:15.031Z,6.87
2022-12-05T09:29:17.207Z,6.87
2022-12-05T09:30:15.156Z,6.88
2022-12-05T09:31:15.107Z,6.81
2022-12-05T09:32:14.996Z,6.95
2022-12-05T09:33:14.975Z,6.97
2022-12-05T09:34:15.001Z,7.02
2022-12-05T09:35:14.971Z,7.00
2022-12-05T09:36:14.975Z,6.89
2022-12-05T09:37:37.503Z,6.97
2022-12-05T09:38:15.937Z,6.99
2022-12-05T09:39:14.908Z,7.00
2022-12-05T09:40:14.887Z,7.11
2022-12-05T09:41:14.942Z,7.07
2022-12-05T09:42:14.917Z,7.14
2022-12-05T09:43:14.856Z,7.25
2022-12-05T09:44:14.856Z,7.29
2022-12-05T09:45:14.874Z,7.29
2022-12-05T09:46:14.929Z,7.42
2022-12-05T09:47:14.819Z,7.38
2022-12-05T09:48:14.834Z,7.51
2022-12-05T09:49:14.785Z,7.53
2022-12-05T09:50:14.782Z,7.61
2022-12-05T09:51:14.804Z,7.63
2022-12-05T09:52:14.757Z,7.67
2022-12-05T09:53:14.766Z,7.76
2022-12-05T09:54:14.778Z,7.76
2022-12-05T09:55:14.721Z,7.87
2022-12-05T09:56:14.757Z,7.87
2022-12-05T09:57:14.706Z,7.95
2022-12-05T09:58:14.705Z,7.95
2022-12-05T09:59:14.677Z,7.94
2022-12-05T10:00:14.700Z,7.93
2022-12-05T10:01:14.723Z,7.95
2022-12-05T10:02:14.740Z,7.88
2022-12-05T10:03:14.631Z,7.98
2022-12-05T10:04:14.674Z,7.94
2022-12-05T10:05:14.677Z,7.97
2022-12-05T10:06:14.637Z,7.94
2022-12-05T10:07:14.591Z,7.95
2022-12-05T10:08:14.661Z,7.88
2022-12-05T10:09:14.566Z,7.87
2022-12-05T10:10:19.997Z,7.91
2022-12-05T10:11:15.576Z,7.82
2022-12-05T10:12:14.566Z,7.95
2022-12-05T10:13:14.523Z,7.93
2022-12-05T10:14:14.546Z,7.82
2022-12-05T10:15:14.501Z,7.75
2022-12-05T10:16:14.551Z,7.70
2022-12-05T10:17:14.508Z,7.63
2022-12-05T10:18:14.505Z,7.63
2022-12-05T10:19:14.510Z,7.56
2022-12-05T10:20:14.443Z,7.58
2022-12-05T10:21:14.435Z,7.56
2022-12-05T10:22:20.116Z,7.57
2022-12-05T10:23:34.689Z,7.57
2022-12-05T10:24:15.426Z,7.54
2022-12-05T10:25:14.387Z,7.63
2022-12-05T10:26:14.428Z,7.61
2022-12-05T10:27:14.361Z,7.60
2022-12-05T10:28:14.364Z,7.67
2022-12-05T10:29:14.540Z,7.66
2022-12-05T10:30:14.953Z,7.60
2022-12-05T10:31:14.414Z,7.72
2022-12-05T10:32:14.329Z,7.75
2022-12-05T10:33:14.303Z,7.76
2022-12-05T10:34:14.295Z,7.76
2022-12-05T10:35:14.303Z,7.70
2022-12-05T10:36:14.324Z,7.76
2022-12-05T10:37:14.261Z,7.90
2022-12-05T10:38:14.247Z,7.83
2022-12-05T10:39:14.239Z,7.93
2022-12-05T10:40:14.218Z,7.91
2022-12-05T10:41:14.515Z,8.00
2022-12-05T10:42:14.233Z,7.85
2022-12-05T10:43:14.276Z,7.90
2022-12-05T10:44:14.175Z,8.01
2022-12-05T10:45:14.168Z,8.01
2022-12-05T10:46:17.300Z,7.95
2022-12-05T10:47:14.319Z,8.00
2022-12-05T10:48:14.131Z,8.09
2022-12-05T10:49:14.118Z,8.05
2022-12-05T10:50:14.136Z,8.03
2022-12-05T10:51:14.099Z,8.13
2022-12-05T10:52:14.094Z,8.10
2022-12-05T10:53:14.101Z,8.09
2022-12-05T10:54:14.065Z,8.18
2022-12-05T10:55:14.157Z,8.15
2022-12-05T10:56:30.768Z,8.18
2022-12-05T10:57:15.033Z,8.12
2022-12-05T10:58:17.271Z,8.26
2022-12-05T10:59:14.030Z,8.18
2022-12-05T11:00:14.001Z,8.20
2022-12-05T11:01:14.023Z,8.26
2022-12-05T11:02:14.067Z,8.27
2022-12-05T11:03:15.426Z,8.26
2022-12-05T11:04:14.072Z,8.34
2022-12-05T11:05:14.196Z,8.28
2022-12-05T11:06:13.928Z,8.36
2022-12-05T11:07:13.919Z,8.41
2022-12-05T11:08:13.991Z,8.46
2022-12-05T11:09:13.896Z,8.44
2022-12-05T11:10:13.888Z,8.38
2022-12-05T11:11:13.896Z,8.41
2022-12-05T11:12:13.967Z,8.53
2022-12-05T11:13:13.855Z,8.49
2022-12-05T11:14:13.869Z,8.51
2022-12-05T11:15:13.906Z,8.52
2022-12-05T11:16:13.835Z,8.51
2022-12-05T11:17:13.861Z,8.53
2022-12-05T11:18:13.801Z,8.53
2022-12-05T11:19:13.790Z,8.52
2022-12-05T11:20:13.773Z,8.64
2022-12-05T11:21:13.794Z,8.58
2022-12-05T11:22:13.747Z,8.67
2022-12-05T11:23:13.757Z,8.67
2022-12-05T11:24:13.731Z,8.67
2022-12-05T11:25:13.715Z,8.67
2022-12-05T11:26:13.707Z,8.71
2022-12-05T11:27:13.690Z,8.66
2022-12-05T11:28:13.688Z,8.71
2022-12-05T11:29:13.783Z,8.66
2022-12-05T11:30:13.687Z,8.78
2022-12-05T11:31:13.768Z,8.85
2022-12-05T11:32:13.637Z,8.69
2022-12-05T11:33:13.630Z,8.70
2022-12-05T11:34:13.616Z,8.73
2022-12-05T11:35:13.638Z,8.81
2022-12-05T11:36:13.650Z,8.78
2022-12-05T11:37:13.581Z,8.87
2022-12-05T11:38:13.570Z,8.82
2022-12-05T11:39:13.562Z,8.88
2022-12-05T11:40:13.546Z,8.85
2022-12-05T11:41:14.030Z,8.79
2022-12-05T11:42:13.548Z,8.94
2022-12-05T11:43:13.526Z,8.92
2022-12-05T11:44:13.501Z,8.88
2022-12-05T11:45:13.599Z,9.02
2022-12-05T11:46:13.598Z,9.03
2022-12-05T11:47:13.556Z,8.99
2022-12-05T11:48:13.453Z,9.03
2022-12-05T11:49:13.441Z,9.11
2022-12-05T11:50:13.455Z,9.11
2022-12-05T11:51:13.480Z,9.10
2022-12-05T11:52:13.586Z,9.18
2022-12-05T11:53:13.445Z,9.22
2022-12-05T11:54:13.383Z,9.23
2022-12-05T11:55:13.411Z,9.26
2022-12-05T11:56:13.364Z,9.25
2022-12-05T11:57:13.361Z,9.21
2022-12-05T11:58:13.360Z,9.29
2022-12-05T11:59:13.484Z,9.28
2022-12-05T12:00:13.320Z,9.28
2022-12-05T12:01:13.320Z,9.31
2022-12-05T12:02:13.446Z,9.37
2022-12-05T12:03:13.339Z,9.37
2022-12-05T12:04:13.309Z,9.36
2022-12-05T12:05:13.359Z,9.36
2022-12-05T12:06:13.259Z,9.47
2022-12-05T12:07:13.244Z,9.46
2022-12-05T12:08:13.414Z,9.43
2022-12-05T12:09:13.222Z,9.41
2022-12-05T12:10:13.976Z,9.40
2022-12-05T12:11:13.255Z,9.41
2022-12-05T12:12:13.186Z,9.43
2022-12-05T12:13:13.179Z,9.50
2022-12-05T12:14:13.165Z,9.54
2022-12-05T12:15:13.151Z,9.48
2022-12-05T12:16:13.205Z,9.46
2022-12-05T12:17:13.251Z,9.51
2022-12-05T12:18:14.016Z,9.61
2022-12-05T12:19:13.111Z,9.55
2022-12-05T12:20:13.134Z,9.51
2022-12-05T12:21:13.980Z,9.50
2022-12-05T12:22:13.074Z,9.54
2022-12-05T12:23:13.162Z,9.50
2022-12-05T12:24:13.057Z,9.51
2022-12-05T12:25:13.059Z,9.50
2022-12-05T12:26:13.038Z,9.44
2022-12-05T12:27:13.025Z,9.61
2022-12-05T12:28:13.992Z,9.55
2022-12-05T12:29:13.525Z,9.56
2022-12-05T12:30:12.992Z,9.54
2022-12-05T12:31:13.112Z,9.50
2022-12-05T12:32:13.055Z,9.48
2022-12-05T12:33:12.949Z,9.51
2022-12-05T12:34:12.963Z,9.54
2022-12-05T12:35:12.966Z,9.56
2022-12-05T12:36:12.919Z,9.50
2022-12-05T12:37:12.964Z,9.55
2022-12-05T12:38:12.899Z,9.58
2022-12-05T12:39:12.886Z,9.59
2022-12-05T12:40:12.877Z,9.54
2022-12-05T12:41:12.919Z,9.58
2022-12-05T12:42:12.855Z,9.61
2022-12-05T12:43:25.459Z,9.51
2022-12-05T12:44:13.833Z,9.62
2022-12-05T12:45:12.819Z,9.65
2022-12-05T12:46:12.848Z,9.59
2022-12-05T12:47:12.852Z,9.50
2022-12-05T12:48:12.836Z,9.58
2022-12-05T12:49:12.777Z,9.59
2022-12-05T12:50:12.797Z,9.58
2022-12-05T12:51:12.771Z,9.61
2022-12-05T12:52:12.774Z,9.55
2022-12-05T12:53:12.750Z,9.55
2022-12-05T12:54:12.722Z,9.54
2022-12-05T12:55:12.733Z,9.58
2022-12-05T12:56:12.697Z,9.58
2022-12-05T12:57:15.329Z,9.61
2022-12-05T12:58:13.702Z,9.50
2022-12-05T12:59:12.662Z,9.56
2022-12-05T13:00:12.680Z,9.64
2022-12-05T13:01:12.720Z,9.58
2022-12-05T13:02:12.696Z,9.58
2022-12-05T13:03:12.623Z,9.61
2022-12-05T13:04:12.644Z,9.62
2022-12-05T13:05:12.599Z,9.61
2022-12-05T13:06:12.606Z,9.55
2022-12-05T13:07:12.614Z,9.61
2022-12-05T13:08:12.728Z,9.65
2022-12-05T13:09:12.554Z,9.51
2022-12-05T13:10:12.578Z,9.61
2022-12-05T13:11:12.524Z,9.68
2022-12-05T13:12:12.526Z,9.61
2022-12-05T13:13:12.506Z,9.55
2022-12-05T13:14:12.495Z,9.59
2022-12-05T13:15:12.488Z,9.59
2022-12-05T13:16:12.549Z,9.58
2022-12-05T13:17:12.487Z,9.66
2022-12-05T13:18:12.454Z,9.76